Аэропорт: Нальчик. Нальчик

ICAO: URMN

METAR:
2021-04-21 20:00:00
URMN 212000Z 05001MPS 9999 OVC039 11/08 Q1020 R24/////// NOSIG RMK QFE728
METAR:
2021-04-21 17:00:00
TAF URMN 211700Z 2118/2203 24003MPS 9999 BKN020CB TEMPO 2118/2203 6000 -SHRA BKN016CB